Time;durP1;ratioP1;P1;durP2;ratioP2;P2;SDS_P1;SDS_P2;PMS_P1;PMS_P2;Temp;Humidity;BMP_temperature;BMP_pressure;BME280_temperature;BME280_humidity;BME280_pressure;Samples;Min_cycle;Max_cycle;Signal;HPM_P1;HPM_P2
2022/03/24 00:07:25;;;;;;;;;;;;;;;22.77;36.35;101302.75;20740778;27;97014;-82
2022/03/24 00:17:26;;;;;;;;;;;;;;;22.76;36.22;101279.94;20737702;27;98270;-80
2022/03/24 00:27:27;;;;;;;;;;;;;;;22.72;36.79;101268.75;20737138;27;97924;-80
2022/03/24 00:48:40;;;;;;;;;;;;;;;22.68;36.38;101249.63;20747869;27;102344;-80
2022/03/24 00:58:41;;;;;;;;;;;;;;;22.69;37.07;101247.81;20721413;27;100441;-80
2022/03/24 01:08:42;;;;;;;;;;;;;;;22.65;36.63;101230.53;20722052;27;96926;-79
2022/03/24 01:18:43;;;;;;;;;;;;;;;22.63;36.34;101217.44;20728371;27;101032;-80
2022/03/24 01:28:43;;;;;;;;;;;;;;;22.61;36.93;101207.94;20725786;27;97016;-80
2022/03/24 01:38:44;;;;;;;;;;;;;;;22.63;37.22;101214.78;20725852;27;98381;-81
2022/03/24 01:48:44;;;;;;;;;;;;;;;22.57;37.65;101204.69;20728065;27;97123;-82
2022/03/24 01:58:45;;;;;;;;;;;;;;;22.58;37.85;101190.50;20727881;27;97322;-81
2022/03/24 02:08:46;;;;;;;;;;;;;;;22.55;38.02;101186.28;20720127;27;98419;-81
2022/03/24 02:18:46;;;;;;;;;;;;;;;22.50;38.06;101187.59;20713518;27;100778;-80
2022/03/24 02:28:47;;;;;;;;;;;;;;;22.51;37.61;101189.28;20731056;27;97678;-80
2022/03/24 02:38:47;;;;;;;;;;;;;;;22.51;37.78;101195.38;20722919;27;97346;-80
2022/03/24 02:48:48;;;;;;;;;;;;;;;22.45;38.04;101187.03;20727455;27;96936;-80
2022/03/24 02:58:48;;;;;;;;;;;;;;;22.48;38.09;101186.84;20725330;27;97215;-80
2022/03/24 03:08:49;;;;;;;;;;;;;;;22.44;38.01;101183.56;20699963;27;97958;-79
2022/03/24 03:18:49;;;;;;;;;;;;;;;22.43;37.80;101178.41;20711337;27;98304;-80
2022/03/24 03:28:53;;;;;;;;;;;;;;;22.36;38.24;101165.63;20709354;27;97942;-79
2022/03/24 03:38:53;;;;;;;;;;;;;;;22.36;38.12;101154.19;20699560;27;101255;-79
2022/03/24 03:48:54;;;;;;;;;;;;;;;22.32;38.23;101150.09;20711683;27;99041;-80
2022/03/24 03:58:54;;;;;;;;;;;;;;;22.29;38.17;101155.56;20723648;27;99320;-80
2022/03/24 04:08:55;;;;;;;;;;;;;;;22.30;38.15;101160.75;20724710;27;97268;-83
2022/03/24 04:18:56;;;;;;;;;;;;;;;22.27;38.46;101154.84;20736020;27;96801;-81
2022/03/24 04:28:57;;;;;;;;;;;;;;;22.27;38.08;101141.66;20725822;27;97410;-81
2022/03/24 04:38:58;;;;;;;;;;;;;;;22.25;38.24;101141.75;20719752;27;97500;-81
2022/03/24 04:48:58;;;;;;;;;;;;;;;22.22;38.07;101149.91;20709850;27;97438;-81
2022/03/24 04:59:00;;;;;;;;;;;;;;;22.20;38.57;101142.09;20716186;27;97637;-82
2022/03/24 05:09:00;;;;;;;;;;;;;;;22.21;38.84;101145.56;20716443;27;100111;-83
2022/03/24 05:19:01;;;;;;;;;;;;;;;22.28;38.55;101149.47;20706097;27;98067;-81
2022/03/24 05:29:01;;;;;;;;;;;;;;;22.32;38.65;101129.81;20713729;27;97683;-81
2022/03/24 05:39:02;;;;;;;;;;;;;;;22.37;38.97;101126.88;20713123;27;99711;-77
2022/03/24 05:49:06;;;;;;;;;;;;;;;22.33;37.12;101126.25;20693625;27;97084;-79
2022/03/24 05:59:07;;;;;;;;;;;;;;;22.28;36.36;101138.09;20715926;27;100051;-79
2022/03/24 06:09:08;;;;;;;;;;;;;;;22.13;36.28;101130.28;20707270;27;97818;-77
2022/03/24 06:19:09;;;;;;;;;;;;;;;22.23;35.54;101125.22;20745223;27;100132;-80
2022/03/24 06:29:13;;;;;;;;;;;;;;;22.26;36.31;101116.22;20737146;27;97781;-77
2022/03/24 06:39:13;;;;;;;;;;;;;;;22.27;36.58;101131.13;20734911;27;97683;-78
2022/03/24 06:49:15;;;;;;;;;;;;;;;22.29;36.77;101119.50;20731997;27;97542;-78
2022/03/24 06:59:15;;;;;;;;;;;;;;;22.32;36.67;101123.72;20731080;27;98303;-78
2022/03/24 07:09:16;;;;;;;;;;;;;;;22.32;36.95;101102.59;20732100;27;97541;-79
2022/03/24 07:19:16;;;;;;;;;;;;;;;22.34;37.51;101103.34;20743656;27;97652;-78
2022/03/24 07:29:17;;;;;;;;;;;;;;;22.36;37.34;101093.50;20749997;27;97575;-78
2022/03/24 07:39:18;;;;;;;;;;;;;;;22.36;37.30;101094.38;20728947;27;97550;-78
2022/03/24 07:49:19;;;;;;;;;;;;;;;22.39;37.40;101098.63;20723376;27;99425;-78
2022/03/24 07:59:21;;;;;;;;;;;;;;;22.38;34.60;101100.38;20738224;27;96901;-81
2022/03/24 08:09:22;;;;;;;;;;;;;;;22.43;36.64;101096.59;20732537;27;97428;-81
2022/03/24 08:19:23;;;;;;;;;;;;;;;22.42;36.72;101082.53;20742779;27;100157;-81
2022/03/24 08:29:23;;;;;;;;;;;;;;;22.43;37.03;101083.41;20735042;27;97554;-80
2022/03/24 08:39:24;;;;;;;;;;;;;;;22.45;37.03;101087.63;20727471;27;97641;-78
2022/03/24 08:49:24;;;;;;;;;;;;;;;22.50;37.24;101080.22;20715633;27;97302;-79
2022/03/24 08:59:25;;;;;;;;;;;;;;;22.53;37.11;101080.00;20740148;27;97824;-77
2022/03/24 09:09:26;;;;;;;;;;;;;;;22.57;37.34;101080.63;20741359;27;96778;-77
2022/03/24 09:19:27;;;;;;;;;;;;;;;22.59;37.37;101068.13;20731276;27;98225;-77
2022/03/24 09:29:27;;;;;;;;;;;;;;;22.63;37.24;101072.25;20730404;27;97378;-77
2022/03/24 09:39:28;;;;;;;;;;;;;;;22.66;37.96;101071.19;20725319;27;97861;-77
2022/03/24 09:49:32;;;;;;;;;;;;;;;22.69;37.82;101069.16;20725084;27;103794;-78
2022/03/24 09:59:33;;;;;;;;;;;;;;;22.75;37.85;101067.84;20733007;27;97051;-77
2022/03/24 10:09:44;;;;;;;;;;;;;;;22.81;38.03;101058.66;20736159;27;97644;-78
2022/03/24 10:19:54;;;;;;;;;;;;;;;22.86;38.01;101052.09;20717384;27;97540;-78
2022/03/24 10:29:58;;;;;;;;;;;;;;;22.93;38.25;101046.34;20731918;27;96854;-78
2022/03/24 10:40:02;;;;;;;;;;;;;;;23.00;37.83;101040.47;20738980;27;96937;-78
2022/03/24 10:50:19;;;;;;;;;;;;;;;23.05;37.78;101024.28;20740347;27;98653;-76
2022/03/24 11:00:19;;;;;;;;;;;;;;;23.13;37.90;101021.91;20741967;27;97669;-78
2022/03/24 11:10:21;;;;;;;;;;;;;;;23.20;37.93;101014.38;20751843;27;97628;-80
2022/03/24 11:20:21;;;;;;;;;;;;;;;23.27;36.15;101004.19;20745611;27;97389;-81
2022/03/24 11:30:23;;;;;;;;;;;;;;;23.34;35.27;100994.84;20742106;27;97810;-79
2022/03/24 11:40:25;;;;;;;;;;;;;;;23.43;35.82;100972.16;20733697;27;96986;-79
2022/03/24 11:50:41;;;;;;;;;;;;;;;23.54;36.34;100969.50;20737470;27;96989;-78
2022/03/24 12:00:41;;;;;;;;;;;;;;;23.64;36.35;100956.38;20744785;27;96889;-80
2022/03/24 12:10:42;;;;;;;;;;;;;;;23.72;36.46;100961.91;20736586;27;97854;-80
2022/03/24 12:20:43;;;;;;;;;;;;;;;23.81;36.47;100944.47;20737908;27;98392;-79
2022/03/24 12:30:46;;;;;;;;;;;;;;;23.90;36.43;100945.53;20735457;27;97229;-80
2022/03/24 12:41:09;;;;;;;;;;;;;;;23.99;36.42;100942.19;20739751;27;96989;-82
2022/03/24 12:51:23;;;;;;;;;;;;;;;24.08;36.29;100935.31;20720152;27;97531;-81
2022/03/24 13:01:25;;;;;;;;;;;;;;;24.14;36.40;100925.09;20723748;27;97117;-81
2022/03/24 13:11:25;;;;;;;;;;;;;;;24.21;36.25;100914.00;20754071;27;98303;-81
2022/03/24 13:21:25;;;;;;;;;;;;;;;24.28;36.36;100918.66;20739883;27;97564;-81
2022/03/24 13:31:29;;;;;;;;;;;;;;;24.36;36.56;100893.34;20735820;27;96978;-81
2022/03/24 13:41:30;;;;;;;;;;;;;;;24.46;36.69;100894.25;20714529;27;97505;-82
2022/03/24 13:51:31;;;;;;;;;;;;;;;24.53;35.95;100882.19;20738029;27;100122;-82
2022/03/24 14:01:32;;;;;;;;;;;;;;;24.55;36.25;100863.53;20736292;27;98481;-83
2022/03/24 14:11:36;;;;;;;;;;;;;;;24.56;35.78;100858.13;20743682;27;97184;-82
2022/03/24 14:21:44;;;;;;;;;;;;;;;24.58;34.68;100844.72;20750656;27;96962;-81
2022/03/24 14:31:45;;;;;;;;;;;;;;;24.61;33.88;100829.44;20743187;27;96841;-80
2022/03/24 14:41:47;;;;;;;;;;;;;;;24.63;33.52;100826.63;20728897;27;96916;-82
2022/03/24 14:51:48;;;;;;;;;;;;;;;24.65;33.13;100821.22;20734757;27;98900;-79
2022/03/24 15:01:48;;;;;;;;;;;;;;;24.65;33.01;100808.81;20730674;27;97269;-82
2022/03/24 15:11:49;;;;;;;;;;;;;;;24.65;32.97;100808.81;20725739;27;101067;-82
2022/03/24 15:21:50;;;;;;;;;;;;;;;24.68;32.41;100803.31;20738097;27;97686;-83
2022/03/24 15:31:51;;;;;;;;;;;;;;;24.68;32.37;100803.31;20721737;27;97683;-80
2022/03/24 15:41:53;;;;;;;;;;;;;;;24.67;32.59;100798.97;20727753;27;97913;-79
2022/03/24 15:51:54;;;;;;;;;;;;;;;24.72;33.51;100803.88;20716602;27;98313;-80
2022/03/24 16:01:55;;;;;;;;;;;;;;;24.73;33.00;100811.69;20718390;27;97113;-79
2022/03/24 16:11:56;;;;;;;;;;;;;;;24.76;31.32;100807.94;20712068;27;97354;-80
2022/03/24 16:21:58;;;;;;;;;;;;;;;24.86;30.98;100818.56;20717357;27;100418;-80
2022/03/24 16:32:00;;;;;;;;;;;;;;;24.87;30.54;100820.25;20703232;27;98421;-81
2022/03/24 16:42:00;;;;;;;;;;;;;;;24.77;23.26;100815.75;20715017;27;98214;-80
2022/03/24 16:52:03;;;;;;;;;;;;;;;24.37;21.05;100828.88;20727058;27;97955;-82
2022/03/24 17:02:04;;;;;;;;;;;;;;;24.19;20.15;100842.66;20730958;27;100449;-80
2022/03/24 17:12:05;;;;;;;;;;;;;;;24.03;20.53;100863.44;20719763;27;97077;-79
2022/03/24 17:22:06;;;;;;;;;;;;;;;23.86;21.26;100867.41;20708690;27;100813;-79
2022/03/24 17:32:07;;;;;;;;;;;;;;;23.99;25.35;100878.72;20689862;27;99124;-79
2022/03/24 17:42:08;;;;;;;;;;;;;;;24.01;28.16;100891.81;20704144;27;97858;-79
2022/03/24 17:52:09;;;;;;;;;;;;;;;23.98;29.22;100909.59;20704758;27;99784;-78
2022/03/24 18:02:10;;;;;;;;;;;;;;;23.96;30.71;100926.56;20694936;27;97125;-77
2022/03/24 18:12:11;;;;;;;;;;;;;;;24.02;30.83;100941.09;20696966;27;97372;-78
2022/03/24 18:22:13;;;;;;;;;;;;;;;24.09;31.88;100952.88;20696563;27;97850;-76
2022/03/24 18:32:14;;;;;;;;;;;;;;;24.15;32.15;100984.13;20699772;27;97085;-76
2022/03/24 18:42:14;;;;;;;;;;;;;;;24.23;32.74;100997.56;20709304;27;97872;-78
2022/03/24 18:52:14;;;;;;;;;;;;;;;24.32;33.56;101013.69;20692341;27;98533;-78
2022/03/24 19:02:15;;;;;;;;;;;;;;;24.32;34.22;101037.50;20709516;27;100407;-78
2022/03/24 19:12:16;;;;;;;;;;;;;;;24.30;34.38;101037.59;20723315;27;101216;-78
2022/03/24 19:22:18;;;;;;;;;;;;;;;24.35;34.81;101053.13;20716852;27;97039;-77
2022/03/24 19:32:18;;;;;;;;;;;;;;;24.33;35.28;101062.97;20715522;27;97398;-78
2022/03/24 19:42:19;;;;;;;;;;;;;;;24.36;35.31;101068.03;20706763;27;98564;-78
2022/03/24 19:52:19;;;;;;;;;;;;;;;24.39;35.13;101086.31;20700181;27;98628;-79
2022/03/24 20:02:20;;;;;;;;;;;;;;;24.37;34.68;101089.09;20705932;27;97474;-80
2022/03/24 20:12:20;;;;;;;;;;;;;;;24.40;35.03;101088.00;20723490;27;97224;-80
2022/03/24 20:22:22;;;;;;;;;;;;;;;24.40;35.08;101095.94;20725414;27;97806;-81
2022/03/24 20:32:22;;;;;;;;;;;;;;;24.34;35.59;101104.38;20712549;27;102122;-78
2022/03/24 20:42:23;;;;;;;;;;;;;;;24.24;36.21;101118.34;20715414;27;100661;-79
2022/03/24 20:52:24;;;;;;;;;;;;;;;24.14;36.64;101120.88;20729130;27;97060;-80
2022/03/24 21:02:25;;;;;;;;;;;;;;;24.05;36.82;101131.34;20701417;27;98759;-79
2022/03/24 21:12:25;;;;;;;;;;;;;;;23.97;36.58;101134.56;20714033;27;97344;-79
2022/03/24 21:22:27;;;;;;;;;;;;;;;23.95;37.19;101149.75;20724429;27;97047;-79
2022/03/24 21:32:27;;;;;;;;;;;;;;;23.88;37.30;101159.91;20712099;27;97388;-80
2022/03/24 21:42:28;;;;;;;;;;;;;;;23.86;37.34;101158.34;20708881;27;97846;-80
2022/03/24 21:52:29;;;;;;;;;;;;;;;23.81;37.50;101169.25;20720067;27;98114;-80
2022/03/24 22:02:30;;;;;;;;;;;;;;;23.77;37.79;101173.13;20713735;27;97148;-80
2022/03/24 22:12:32;;;;;;;;;;;;;;;23.71;37.51;101174.41;20716654;27;97475;-80
2022/03/24 22:22:33;;;;;;;;;;;;;;;23.69;37.41;101165.75;20719031;27;97294;-81
2022/03/24 22:32:34;;;;;;;;;;;;;;;23.65;37.94;101173.06;20725306;27;99154;-81
2022/03/24 22:42:35;;;;;;;;;;;;;;;23.64;38.35;101189.03;20737574;27;97470;-81
2022/03/24 22:52:36;;;;;;;;;;;;;;;23.61;38.48;101190.13;20734887;27;97949;-80
2022/03/24 23:02:36;;;;;;;;;;;;;;;23.59;38.33;101192.03;20739624;27;97014;-80
2022/03/24 23:12:37;;;;;;;;;;;;;;;23.57;38.35;101199.25;20740013;27;97683;-80
2022/03/24 23:22:37;;;;;;;;;;;;;;;23.53;38.23;101208.34;20746679;27;97929;-81
2022/03/24 23:32:38;;;;;;;;;;;;;;;23.49;38.15;101210.38;20733633;27;97045;-80
2022/03/24 23:42:38;;;;;;;;;;;;;;;23.46;38.37;101213.28;20724994;27;98267;-79
2022/03/24 23:52:39;;;;;;;;;;;;;;;23.44;38.45;101220.47;20721880;27;97584;-80
